createdAt,value
2022-08-28T00:00:14.949Z,16.59
2022-08-28T00:02:42.432Z,16.57
2022-08-28T00:05:11.235Z,16.54
2022-08-28T00:07:38.218Z,16.51
2022-08-28T00:10:06.789Z,16.51
2022-08-28T00:12:34.870Z,16.35
2022-08-28T00:15:02.719Z,16.40
2022-08-28T00:17:29.489Z,16.45
2022-08-28T00:19:56.238Z,16.38
2022-08-28T00:22:23.356Z,16.34
2022-08-28T00:24:49.994Z,16.30
2022-08-28T00:27:35.177Z,16.15
2022-08-28T00:30:01.904Z,16.11
2022-08-28T00:32:28.717Z,16.07
2022-08-28T00:34:55.449Z,16.18
2022-08-28T00:37:24.555Z,16.23
2022-08-28T00:39:51.658Z,16.27
2022-08-28T00:42:18.570Z,16.19
2022-08-28T00:44:45.509Z,16.04
2022-08-28T00:47:13.229Z,16.11
2022-08-28T00:49:50.796Z,16.24
2022-08-28T00:52:18.959Z,16.15
2022-08-28T00:54:59.416Z,16.10
2022-08-28T00:57:35.255Z,16.19
2022-08-28T01:00:02.728Z,16.21
2022-08-28T01:02:29.702Z,16.34
2022-08-28T01:04:56.535Z,16.40
2022-08-28T01:07:23.954Z,16.39
2022-08-28T01:09:54.185Z,16.34
2022-08-28T01:12:25.460Z,16.40
2022-08-28T01:14:53.659Z,16.35
2022-08-28T01:17:21.681Z,16.44
2022-08-28T01:19:57.193Z,16.48
2022-08-28T01:22:30.973Z,16.43
2022-08-28T01:24:59.533Z,16.44
2022-08-28T01:27:26.665Z,16.42
2022-08-28T01:29:53.600Z,16.43
2022-08-28T01:32:37.849Z,16.47
2022-08-28T01:35:07.217Z,16.47
2022-08-28T01:37:33.949Z,16.45
2022-08-28T01:40:01.454Z,16.47
2022-08-28T01:42:28.528Z,16.50
2022-08-28T01:44:55.356Z,16.55
2022-08-28T01:47:22.819Z,16.50
2022-08-28T01:49:49.839Z,16.36
2022-08-28T01:52:16.640Z,16.34
2022-08-28T01:54:43.336Z,16.47
2022-08-28T01:57:10.537Z,16.48
2022-08-28T01:59:37.254Z,16.47
2022-08-28T02:02:04.730Z,16.54
2022-08-28T02:04:31.803Z,16.50
2022-08-28T02:06:59.495Z,16.41
2022-08-28T02:09:26.125Z,16.43
2022-08-28T02:11:54.440Z,16.54
2022-08-28T02:14:22.526Z,16.54
2022-08-28T02:16:49.990Z,16.52
2022-08-28T02:19:17.221Z,16.54
2022-08-28T02:21:44.011Z,16.49
2022-08-28T02:24:10.830Z,16.49
2022-08-28T02:26:38.241Z,16.48
2022-08-28T02:29:05.469Z,16.52
2022-08-28T02:31:32.289Z,16.51
2022-08-28T02:33:59.089Z,16.41
2022-08-28T02:36:26.190Z,16.43
2022-08-28T02:38:57.413Z,16.47
2022-08-28T02:41:24.715Z,16.51
2022-08-28T02:43:51.388Z,16.53
2022-08-28T02:46:18.181Z,16.51
2022-08-28T02:48:45.666Z,16.51
2022-08-28T02:51:13.769Z,16.56
2022-08-28T02:53:41.992Z,16.51
2022-08-28T02:56:09.599Z,16.42
2022-08-28T02:58:36.621Z,16.44
2022-08-28T03:01:09.760Z,16.48
2022-08-28T03:03:37.164Z,16.53
2022-08-28T03:06:08.324Z,16.52
2022-08-28T03:08:35.294Z,16.52
2022-08-28T03:11:02.014Z,16.54
2022-08-28T03:13:28.852Z,16.51
2022-08-28T03:15:56.240Z,16.44
2022-08-28T03:18:24.528Z,16.48
2022-08-28T03:20:52.794Z,16.44
2022-08-28T03:23:28.906Z,16.46
2022-08-28T03:25:58.418Z,16.49
2022-08-28T03:28:26.839Z,16.52
2022-08-28T03:30:54.302Z,16.44
2022-08-28T03:33:21.740Z,16.32
2022-08-28T03:35:48.891Z,16.23
2022-08-28T03:38:17.049Z,16.31
2022-08-28T03:40:46.440Z,16.26
2022-08-28T03:43:23.500Z,16.32
2022-08-28T03:46:03.332Z,16.35
2022-08-28T03:48:33.180Z,16.32
2022-08-28T03:51:00.761Z,16.30
2022-08-28T03:53:29.426Z,16.40
2022-08-28T03:55:56.921Z,16.46
2022-08-28T03:58:24.193Z,16.48
2022-08-28T04:00:51.242Z,16.48
2022-08-28T04:03:18.617Z,16.48
2022-08-28T04:05:46.271Z,16.46
2022-08-28T04:08:16.105Z,16.43
2022-08-28T04:10:44.241Z,16.36
2022-08-28T04:13:12.479Z,16.35
2022-08-28T04:15:39.689Z,16.41
2022-08-28T04:18:06.433Z,16.40
2022-08-28T04:20:33.264Z,16.37
2022-08-28T04:23:01.339Z,16.39
2022-08-28T04:25:27.959Z,16.43
2022-08-28T04:27:54.633Z,16.39
2022-08-28T04:30:21.349Z,16.31
2022-08-28T04:32:48.013Z,16.38
2022-08-28T04:35:15.580Z,16.31
2022-08-28T04:37:43.810Z,16.24
2022-08-28T04:40:11.497Z,16.30
2022-08-28T04:42:38.992Z,16.40
2022-08-28T04:45:07.130Z,16.42
2022-08-28T04:47:38.503Z,16.44
2022-08-28T04:50:06.506Z,16.38
2022-08-28T04:52:33.148Z,16.49
2022-08-28T04:54:59.858Z,16.51
2022-08-28T04:57:26.534Z,16.54
2022-08-28T04:59:53.261Z,16.57
2022-08-28T05:02:20.025Z,16.48
2022-08-28T05:04:47.372Z,16.42
2022-08-28T05:07:14.340Z,16.45
2022-08-28T05:09:41.019Z,16.53
2022-08-28T05:12:07.641Z,16.56
2022-08-28T05:14:34.357Z,16.63
2022-08-28T05:17:01.000Z,16.69
2022-08-28T05:19:28.262Z,16.71
2022-08-28T05:21:55.231Z,16.75
2022-08-28T05:24:22.655Z,16.71
2022-08-28T05:26:49.348Z,16.70
2022-08-28T05:29:16.987Z,16.72
2022-08-28T05:31:44.427Z,16.71
2022-08-28T05:34:13.617Z,16.77
2022-08-28T05:36:40.310Z,16.76
2022-08-28T05:39:09.165Z,16.71
2022-08-28T05:41:36.819Z,16.76
2022-08-28T05:44:05.829Z,16.80
2022-08-28T05:46:33.388Z,16.83
2022-08-28T05:49:00.600Z,16.87
2022-08-28T05:51:28.233Z,16.89
2022-08-28T05:53:57.557Z,16.87
2022-08-28T05:56:29.737Z,16.86
2022-08-28T05:58:57.667Z,16.91
2022-08-28T06:01:29.605Z,17.00
2022-08-28T06:03:59.321Z,17.00
2022-08-28T06:06:27.965Z,17.04
2022-08-28T06:09:04.178Z,17.06
2022-08-28T06:11:32.823Z,17.03
2022-08-28T06:14:03.189Z,16.99
2022-08-28T06:16:32.027Z,17.02
2022-08-28T06:18:59.178Z,16.99
2022-08-28T06:21:26.184Z,16.95
2022-08-28T06:23:53.116Z,17.03
2022-08-28T06:26:19.961Z,16.94
2022-08-28T06:28:46.592Z,17.01
2022-08-28T06:31:24.676Z,17.02
2022-08-28T06:33:57.867Z,17.16
2022-08-28T06:36:27.653Z,17.18
2022-08-28T06:38:58.133Z,17.25
2022-08-28T06:41:25.377Z,17.46
2022-08-28T06:43:52.018Z,17.61
2022-08-28T06:46:18.859Z,17.66
2022-08-28T06:48:45.512Z,17.77
2022-08-28T06:51:13.019Z,17.93
2022-08-28T06:53:41.612Z,17.89
2022-08-28T06:56:26.389Z,17.79
2022-08-28T06:58:55.828Z,17.92
2022-08-28T07:01:33.942Z,17.98
2022-08-28T07:04:05.062Z,18.05
2022-08-28T07:06:34.431Z,18.15
2022-08-28T07:09:01.900Z,18.10
2022-08-28T07:11:31.456Z,18.07
2022-08-28T07:13:59.223Z,17.97
2022-08-28T07:16:31.868Z,17.79
2022-08-28T07:18:59.674Z,18.00
2022-08-28T07:21:27.094Z,18.10
2022-08-28T07:23:55.004Z,18.10
2022-08-28T07:26:24.007Z,18.00
2022-08-28T07:28:51.543Z,17.95
2022-08-28T07:31:26.136Z,18.00
2022-08-28T07:33:54.862Z,18.05
2022-08-28T07:36:29.873Z,18.05
2022-08-28T07:38:58.262Z,18.13
2022-08-28T07:41:27.858Z,18.04
2022-08-28T07:44:13.525Z,18.07
2022-08-28T07:46:40.907Z,18.21
2022-08-28T07:49:08.918Z,18.22
2022-08-28T07:51:36.038Z,18.38
2022-08-28T07:54:04.069Z,18.39
2022-08-28T07:56:31.457Z,18.46
2022-08-28T07:58:59.625Z,18.40
2022-08-28T08:01:28.788Z,18.50
2022-08-28T08:04:01.279Z,18.41
2022-08-28T08:06:34.022Z,18.63
2022-08-28T08:09:05.153Z,18.51
2022-08-28T08:11:32.770Z,18.55
2022-08-28T08:14:04.656Z,18.70
2022-08-28T08:16:35.677Z,18.72
2022-08-28T08:19:04.151Z,18.77
2022-08-28T08:21:31.715Z,18.91
2022-08-28T08:23:59.254Z,18.90
2022-08-28T08:26:28.277Z,18.86
2022-08-28T08:28:56.267Z,18.76
2022-08-28T08:31:26.874Z,18.60
2022-08-28T08:33:56.493Z,18.48
2022-08-28T08:36:25.536Z,18.38
2022-08-28T08:38:59.254Z,18.31
2022-08-28T08:41:33.423Z,18.43
2022-08-28T08:44:33.548Z,18.41
2022-08-28T08:47:22.462Z,18.32
2022-08-28T08:49:57.570Z,18.09
2022-08-28T08:52:30.296Z,18.06
2022-08-28T08:55:06.408Z,18.04
2022-08-28T08:57:35.420Z,18.03
2022-08-28T09:00:12.303Z,18.14
2022-08-28T09:02:49.473Z,18.33
2022-08-28T09:05:20.269Z,18.44
2022-08-28T09:07:58.409Z,18.42
2022-08-28T09:10:35.821Z,18.55
2022-08-28T09:13:17.621Z,18.59
2022-08-28T09:15:50.620Z,18.64
2022-08-28T09:18:26.019Z,18.59
2022-08-28T09:20:58.349Z,18.61
2022-08-28T09:23:27.225Z,18.55
2022-08-28T09:26:02.107Z,18.55
2022-08-28T09:28:37.650Z,18.57
2022-08-28T09:31:19.069Z,18.62
2022-08-28T09:33:52.042Z,18.59
2022-08-28T09:36:23.561Z,18.83
2022-08-28T09:39:14.730Z,18.75
2022-08-28T09:42:26.177Z,18.84
2022-08-28T09:45:16.400Z,18.76
2022-08-28T09:47:54.614Z,18.74
2022-08-28T09:50:37.479Z,18.66
2022-08-28T09:53:10.223Z,18.75
2022-08-28T09:55:41.788Z,18.88
2022-08-28T09:58:09.114Z,18.79
2022-08-28T10:00:39.088Z,18.80
2022-08-28T10:03:16.248Z,18.67
2022-08-28T10:06:09.187Z,18.88
2022-08-28T10:08:55.012Z,18.78
2022-08-28T10:11:34.718Z,18.76
2022-08-28T10:14:08.699Z,18.75
2022-08-28T10:16:51.508Z,18.60
2022-08-28T10:20:02.830Z,18.58
2022-08-28T10:22:42.590Z,18.42
2022-08-28T10:25:09.600Z,18.49
2022-08-28T10:27:56.729Z,18.70
2022-08-28T10:30:25.011Z,18.77
2022-08-28T10:33:10.309Z,18.78
2022-08-28T10:35:53.332Z,19.06
2022-08-28T10:38:27.849Z,18.96
2022-08-28T10:41:11.154Z,19.20
2022-08-28T10:43:43.688Z,19.40
2022-08-28T10:46:27.154Z,19.21
2022-08-28T10:48:58.490Z,19.07
2022-08-28T10:51:35.220Z,19.08
2022-08-28T10:54:13.720Z,19.26
2022-08-28T10:56:44.539Z,19.57
2022-08-28T10:59:12.206Z,19.76
2022-08-28T11:01:42.801Z,20.00
2022-08-28T11:04:25.416Z,19.92
2022-08-28T11:06:58.575Z,20.11
2022-08-28T11:09:37.750Z,20.21
2022-08-28T11:12:10.246Z,19.98
2022-08-28T11:14:47.718Z,20.05
2022-08-28T11:17:30.615Z,19.93
2022-08-28T11:20:14.016Z,19.86
2022-08-28T11:22:43.721Z,19.97
2022-08-28T11:25:12.940Z,20.06
2022-08-28T11:27:40.616Z,20.17
2022-08-28T11:30:11.157Z,20.11
2022-08-28T11:32:56.588Z,20.20
2022-08-28T11:35:49.116Z,20.30
2022-08-28T11:38:41.507Z,20.25
2022-08-28T11:41:25.857Z,20.30
2022-08-28T11:44:41.632Z,20.50
2022-08-28T11:47:44.908Z,20.56
2022-08-28T11:50:32.168Z,20.55
2022-08-28T11:53:14.223Z,20.72
2022-08-28T11:56:00.030Z,20.63
2022-08-28T11:58:35.781Z,20.79
2022-08-28T12:01:07.548Z,20.69
2022-08-28T12:03:38.300Z,20.92
2022-08-28T12:06:06.320Z,20.94
2022-08-28T12:08:46.104Z,20.87
2022-08-28T12:11:40.785Z,20.83
2022-08-28T12:14:11.316Z,20.97
2022-08-28T12:17:00.085Z,21.02
2022-08-28T12:19:28.912Z,21.09
2022-08-28T12:21:56.431Z,21.05
2022-08-28T12:24:24.274Z,21.16
2022-08-28T12:26:54.674Z,21.34
2022-08-28T12:29:32.947Z,21.35
2022-08-28T12:32:31.167Z,21.26
2022-08-28T12:34:58.037Z,21.34
2022-08-28T12:37:50.869Z,21.43
2022-08-28T12:40:25.661Z,21.39
2022-08-28T12:42:56.139Z,21.61
2022-08-28T12:45:35.045Z,21.63
2022-08-28T12:48:15.576Z,21.62
2022-08-28T12:50:42.263Z,21.48
2022-08-28T12:53:16.432Z,21.41
2022-08-28T12:55:45.558Z,21.32
2022-08-28T12:58:34.036Z,21.30
2022-08-28T13:01:14.301Z,21.20
2022-08-28T13:03:49.977Z,21.25
2022-08-28T13:06:36.779Z,21.24
2022-08-28T13:09:07.382Z,21.26
2022-08-28T13:11:38.831Z,21.02
2022-08-28T13:14:06.038Z,20.90
2022-08-28T13:16:42.658Z,20.90
2022-08-28T13:19:29.129Z,20.85
2022-08-28T13:22:32.232Z,20.84
2022-08-28T13:25:00.928Z,20.84
2022-08-28T13:27:28.307Z,20.84
2022-08-28T13:30:26.106Z,20.85
2022-08-28T13:33:23.695Z,20.74
2022-08-28T13:35:51.565Z,20.73
2022-08-28T13:38:20.768Z,20.61
2022-08-28T13:40:58.081Z,20.53
2022-08-28T13:43:28.191Z,20.69
2022-08-28T13:45:55.199Z,20.63
2022-08-28T13:48:26.515Z,20.64
2022-08-28T13:51:04.835Z,20.59
2022-08-28T13:53:31.970Z,20.49
2022-08-28T13:56:00.318Z,20.59
2022-08-28T13:58:28.332Z,20.63
2022-08-28T14:00:55.401Z,20.50
2022-08-28T14:03:41.317Z,20.41
2022-08-28T14:06:16.981Z,20.45
2022-08-28T14:08:44.923Z,20.62
2022-08-28T14:11:13.231Z,20.90
2022-08-28T14:13:46.711Z,21.14
2022-08-28T14:16:23.323Z,21.16
2022-08-28T14:18:52.765Z,21.10
2022-08-28T14:21:20.003Z,20.85
2022-08-28T14:23:46.709Z,20.73
2022-08-28T14:26:13.459Z,20.56
2022-08-28T14:28:40.121Z,20.48
2022-08-28T14:31:11.045Z,20.34
2022-08-28T14:33:41.717Z,20.32
2022-08-28T14:36:18.699Z,20.16
2022-08-28T14:38:45.448Z,19.98
2022-08-28T14:41:12.549Z,19.86
2022-08-28T14:43:39.409Z,19.56
2022-08-28T14:46:09.680Z,19.63
2022-08-28T14:48:38.291Z,19.51
2022-08-28T14:51:05.170Z,19.44
2022-08-28T14:53:31.919Z,19.61
2022-08-28T14:55:58.559Z,19.58
2022-08-28T14:58:25.619Z,19.62
2022-08-28T15:00:52.998Z,19.59
2022-08-28T15:03:20.477Z,19.59
2022-08-28T15:05:47.813Z,19.76
2022-08-28T15:08:16.354Z,19.77
2022-08-28T15:10:44.149Z,19.77
2022-08-28T15:13:11.588Z,19.80
2022-08-28T15:15:39.657Z,19.58
2022-08-28T15:18:07.262Z,19.64
2022-08-28T15:20:45.021Z,19.64
2022-08-28T15:23:13.456Z,19.68
2022-08-28T15:25:40.571Z,19.76
2022-08-28T15:28:07.451Z,19.79
2022-08-28T15:30:34.619Z,19.63
2022-08-28T15:33:01.730Z,19.61
2022-08-28T15:35:28.648Z,19.69
2022-08-28T15:37:55.437Z,19.51
2022-08-28T15:40:40.782Z,19.45
2022-08-28T15:43:07.692Z,19.49
2022-08-28T15:45:39.319Z,19.34
2022-08-28T15:48:06.439Z,19.51
2022-08-28T15:50:33.224Z,19.22
2022-08-28T15:53:00.030Z,19.07
2022-08-28T15:55:27.450Z,19.13
2022-08-28T15:57:55.208Z,19.19
2022-08-28T16:00:22.097Z,19.17
2022-08-28T16:02:49.019Z,19.15
2022-08-28T16:05:16.052Z,18.91
2022-08-28T16:07:42.829Z,18.72
2022-08-28T16:10:10.170Z,18.71
2022-08-28T16:12:40.249Z,18.69
2022-08-28T16:15:08.399Z,18.66
2022-08-28T16:17:35.140Z,18.54
2022-08-28T16:20:03.651Z,18.46
2022-08-28T16:22:30.377Z,18.39
2022-08-28T16:24:57.499Z,18.27
2022-08-28T16:27:24.228Z,18.45
2022-08-28T16:29:52.786Z,18.55
2022-08-28T16:32:20.009Z,18.45
2022-08-28T16:34:46.825Z,18.41
2022-08-28T16:37:14.359Z,18.31
2022-08-28T16:39:46.363Z,18.40
2022-08-28T16:42:13.004Z,18.41
2022-08-28T16:44:39.949Z,18.42
2022-08-28T16:47:07.063Z,18.42
2022-08-28T16:49:33.869Z,18.36
2022-08-28T16:52:00.595Z,18.43
2022-08-28T16:54:27.296Z,18.33
2022-08-28T16:56:54.040Z,18.29
2022-08-28T16:59:21.152Z,18.19
2022-08-28T17:01:52.818Z,18.18
2022-08-28T17:04:20.629Z,18.33
2022-08-28T17:06:47.549Z,18.41
2022-08-28T17:09:14.460Z,18.44
2022-08-28T17:11:41.162Z,18.42
2022-08-28T17:14:09.200Z,18.42
2022-08-28T17:16:35.925Z,18.41
2022-08-28T17:19:02.774Z,18.38
2022-08-28T17:21:48.296Z,18.45
2022-08-28T17:24:15.101Z,18.42
2022-08-28T17:26:42.680Z,18.27
2022-08-28T17:29:09.753Z,18.26
2022-08-28T17:31:36.934Z,18.12
2022-08-28T17:34:05.747Z,18.14
2022-08-28T17:36:34.344Z,18.22
2022-08-28T17:39:03.733Z,18.11
2022-08-28T17:41:30.467Z,18.11
2022-08-28T17:43:57.287Z,18.12
2022-08-28T17:46:24.095Z,18.07
2022-08-28T17:48:56.193Z,18.07
2022-08-28T17:51:41.902Z,17.97
2022-08-28T17:54:18.529Z,18.00
2022-08-28T17:56:46.517Z,18.07
2022-08-28T17:59:14.044Z,18.02
2022-08-28T18:01:44.607Z,18.02
2022-08-28T18:04:12.318Z,18.03
2022-08-28T18:06:39.561Z,17.99
2022-08-28T18:09:08.210Z,17.94
2022-08-28T18:11:34.986Z,17.86
2022-08-28T18:14:02.409Z,17.72
2022-08-28T18:16:32.138Z,17.83
2022-08-28T18:19:00.354Z,17.89
2022-08-28T18:21:27.488Z,17.85
2022-08-28T18:23:54.247Z,17.75
2022-08-28T18:26:21.119Z,17.81
2022-08-28T18:28:48.011Z,17.79
2022-08-28T18:31:15.195Z,17.78
2022-08-28T18:33:41.907Z,17.77
2022-08-28T18:36:10.562Z,17.71
2022-08-28T18:38:37.378Z,17.71
2022-08-28T18:41:05.680Z,17.69
2022-08-28T18:43:33.384Z,17.69
2022-08-28T18:46:01.978Z,17.71
2022-08-28T18:48:29.035Z,17.69
2022-08-28T18:50:55.865Z,17.70
2022-08-28T18:53:23.624Z,17.68
2022-08-28T18:55:52.765Z,17.65
2022-08-28T18:58:21.176Z,17.63
2022-08-28T19:00:48.574Z,17.58
2022-08-28T19:03:15.759Z,17.50
2022-08-28T19:05:42.507Z,17.46
2022-08-28T19:08:09.419Z,17.48
2022-08-28T19:10:37.977Z,17.48
2022-08-28T19:13:06.519Z,17.48
2022-08-28T19:15:34.733Z,17.54
2022-08-28T19:18:02.088Z,17.51
2022-08-28T19:20:29.888Z,17.49
2022-08-28T19:22:58.010Z,17.46
2022-08-28T19:25:28.295Z,17.41
2022-08-28T19:28:00.194Z,17.37
2022-08-28T19:30:31.413Z,17.41
2022-08-28T19:32:58.423Z,17.44
2022-08-28T19:35:25.928Z,17.33
2022-08-28T19:37:53.797Z,17.19
2022-08-28T19:40:21.038Z,17.17
2022-08-28T19:42:50.051Z,17.21
2022-08-28T19:45:18.045Z,17.19
2022-08-28T19:47:45.698Z,17.31
2022-08-28T19:50:14.760Z,17.24
2022-08-28T19:52:43.633Z,17.05
2022-08-28T19:55:23.693Z,16.93
2022-08-28T19:57:50.631Z,16.94
2022-08-28T20:00:19.262Z,17.03
2022-08-28T20:02:48.287Z,17.05
2022-08-28T20:05:15.533Z,17.03
2022-08-28T20:07:42.497Z,17.04
2022-08-28T20:10:10.442Z,16.95
2022-08-28T20:12:38.689Z,16.91
2022-08-28T20:15:09.314Z,16.99
2022-08-28T20:17:43.944Z,16.89
2022-08-28T20:20:17.959Z,16.79
2022-08-28T20:22:44.746Z,16.76
2022-08-28T20:25:11.901Z,16.90
2022-08-28T20:27:41.477Z,16.92
2022-08-28T20:30:11.106Z,16.96
2022-08-28T20:32:40.373Z,16.96
2022-08-28T20:35:09.623Z,16.98
2022-08-28T20:37:44.731Z,17.06
2022-08-28T20:40:16.039Z,16.98
2022-08-28T20:42:42.987Z,16.98
2022-08-28T20:45:10.729Z,16.83
2022-08-28T20:47:37.429Z,16.77
2022-08-28T20:50:05.107Z,16.79
2022-08-28T20:52:31.758Z,16.65
2022-08-28T20:54:58.514Z,16.61
2022-08-28T20:57:25.691Z,16.59
2022-08-28T20:59:54.136Z,16.64
2022-08-28T21:02:24.280Z,16.70
2022-08-28T21:04:52.035Z,16.73
2022-08-28T21:07:20.538Z,16.72
2022-08-28T21:10:04.919Z,16.86
2022-08-28T21:12:35.721Z,16.85
2022-08-28T21:15:02.655Z,16.81
2022-08-28T21:17:30.712Z,16.80
2022-08-28T21:20:02.891Z,16.78
2022-08-28T21:22:31.554Z,16.80
2022-08-28T21:24:58.779Z,16.79
2022-08-28T21:27:25.405Z,16.83
2022-08-28T21:29:55.237Z,16.79
2022-08-28T21:32:21.856Z,16.74
2022-08-28T21:34:48.499Z,16.77
2022-08-28T21:37:15.623Z,16.81
2022-08-28T21:39:42.308Z,16.79
2022-08-28T21:42:10.392Z,16.88
2022-08-28T21:44:38.221Z,16.92
2022-08-28T21:47:05.211Z,16.92
2022-08-28T21:49:31.855Z,16.91
2022-08-28T21:52:01.299Z,16.92
2022-08-28T21:54:28.043Z,16.93
2022-08-28T21:56:58.744Z,16.88
2022-08-28T21:59:25.777Z,16.95
2022-08-28T22:01:58.381Z,16.96
2022-08-28T22:04:25.298Z,16.89
2022-08-28T22:06:51.987Z,16.83
2022-08-28T22:09:18.643Z,16.80
2022-08-28T22:11:45.267Z,16.79
2022-08-28T22:14:11.873Z,16.77
2022-08-28T22:16:38.571Z,16.74
2022-08-28T22:19:05.197Z,16.81
2022-08-28T22:21:50.273Z,16.86
2022-08-28T22:24:16.977Z,16.78
2022-08-28T22:26:43.927Z,16.77
2022-08-28T22:29:11.089Z,16.74
2022-08-28T22:31:39.666Z,16.80
2022-08-28T22:34:12.670Z,16.85
2022-08-28T22:36:39.938Z,16.80
2022-08-28T22:39:06.650Z,16.84
2022-08-28T22:41:33.338Z,16.88
2022-08-28T22:44:00.306Z,16.93
2022-08-28T22:46:27.918Z,16.93
2022-08-28T22:48:54.779Z,16.94
2022-08-28T22:51:21.484Z,16.95
2022-08-28T22:53:55.805Z,16.94
2022-08-28T22:56:22.467Z,16.91
2022-08-28T22:58:49.098Z,16.93
2022-08-28T23:01:18.700Z,16.93
2022-08-28T23:03:46.087Z,16.96
2022-08-28T23:06:13.857Z,16.94
2022-08-28T23:08:40.730Z,16.93
2022-08-28T23:11:07.442Z,16.95
2022-08-28T23:13:34.409Z,16.92
2022-08-28T23:16:01.619Z,16.87
2022-08-28T23:18:28.818Z,16.93
2022-08-28T23:20:56.086Z,16.98
2022-08-28T23:23:23.558Z,17.01
2022-08-28T23:25:50.669Z,16.97
2022-08-28T23:28:18.258Z,16.92
2022-08-28T23:30:48.529Z,16.88
2022-08-28T23:33:23.834Z,16.85
2022-08-28T23:35:51.045Z,16.85
2022-08-28T23:38:17.809Z,16.78
2022-08-28T23:40:44.686Z,16.74
2022-08-28T23:43:11.875Z,16.62
2022-08-28T23:45:40.144Z,16.65
2022-08-28T23:48:07.022Z,16.71
2022-08-28T23:50:33.968Z,16.71
2022-08-28T23:53:01.855Z,16.71
2022-08-28T23:55:29.070Z,16.73
2022-08-28T23:57:55.890Z,16.71
